Time;durP1;ratioP1;P1;durP2;ratioP2;P2;SDS_P1;SDS_P2;PMS_P1;PMS_P2;Temp;Humidity;BMP_temperature;BMP_pressure;BME280_temperature;BME280_humidity;BME280_pressure;Samples;Min_cycle;Max_cycle;Signal;HPM_P1;HPM_P2
2022/08/31 00:04:25;;;;;;;2.22;1.85;;;20.20;50.40;;;;;;4972236;28;20045;-76
2022/08/31 00:06:51;;;;;;;4.65;2.05;;;20.20;50.40;;;;;;4981327;28;20069;-76
2022/08/31 00:09:16;;;;;;;3.28;2.00;;;20.20;50.70;;;;;;4996109;28;20034;-76
2022/08/31 00:11:42;;;;;;;3.90;2.58;;;20.10;50.70;;;;;;4966025;28;20035;-75
2022/08/31 00:14:08;;;;;;;2.60;2.13;;;20.10;50.90;;;;;;4970466;28;20068;-77
2022/08/31 00:16:36;;;;;;;3.13;2.20;;;20.10;50.90;;;;;;4988759;28;20034;-77
2022/08/31 00:19:01;;;;;;;3.83;2.30;;;20.10;51.10;;;;;;4985983;28;20130;-76
2022/08/31 00:21:27;;;;;;;3.63;2.20;;;20.10;51.10;;;;;;4949349;28;20335;-76
2022/08/31 00:23:52;;;;;;;2.85;2.45;;;20.10;51.20;;;;;;5008670;28;20030;-75
2022/08/31 00:26:18;;;;;;;2.70;2.30;;;20.10;51.30;;;;;;5003142;28;20045;-76
2022/08/31 00:28:43;;;;;;;3.33;2.28;;;20.10;51.50;;;;;;4968179;28;20045;-76
2022/08/31 00:31:09;;;;;;;2.75;2.30;;;20.00;51.50;;;;;;5005033;28;20068;-76
2022/08/31 00:33:38;;;;;;;3.55;2.45;;;20.00;51.60;;;;;;4994665;28;20034;-76
2022/08/31 00:36:05;;;;;;;3.03;2.13;;;20.00;51.70;;;;;;5004805;28;20043;-76
2022/08/31 00:38:30;;;;;;;3.92;2.15;;;20.00;51.70;;;;;;4988669;28;20061;-77
2022/08/31 00:40:56;;;;;;;3.17;2.50;;;20.00;51.80;;;;;;5003809;28;20030;-76
2022/08/31 00:43:48;;;;;;;2.92;2.25;;;20.00;51.90;;;;;;5003833;28;20588;-76
2022/08/31 00:46:23;;;;;;;2.38;2.17;;;19.90;52.40;;;;;;5004172;28;20042;-76
2022/08/31 00:49:02;;;;;;;6.25;2.28;;;19.90;52.10;;;;;;4986714;28;20221;-76
2022/08/31 00:51:28;;;;;;;3.92;2.30;;;19.90;52.50;;;;;;4970256;28;20073;-75
2022/08/31 00:53:54;;;;;;;4.53;2.35;;;19.90;52.30;;;;;;4989117;28;20061;-77
2022/08/31 00:56:20;;;;;;;3.45;2.83;;;19.90;52.30;;;;;;4986601;28;20038;-76
2022/08/31 00:58:45;;;;;;;6.55;2.45;;;19.90;52.40;;;;;;4986364;28;20227;-76
2022/08/31 01:01:11;;;;;;;4.07;2.83;;;19.90;52.50;;;;;;5001633;28;20043;-76
2022/08/31 01:03:36;;;;;;;3.92;2.75;;;19.80;52.70;;;;;;4949438;28;20041;-77
2022/08/31 01:06:02;;;;;;;6.43;2.72;;;19.80;52.90;;;;;;4976467;28;20030;-76
2022/08/31 01:08:29;;;;;;;7.97;2.47;;;19.80;53.00;;;;;;5003407;28;20092;-75
2022/08/31 01:10:55;;;;;;;5.70;2.47;;;19.80;53.00;;;;;;4987813;28;20030;-76
2022/08/31 01:13:20;;;;;;;3.45;2.50;;;19.80;53.10;;;;;;5001064;28;21059;-76
2022/08/31 01:15:58;;;;;;;3.38;2.28;;;19.80;53.10;;;;;;5003303;28;20033;-76
2022/08/31 01:18:24;;;;;;;4.25;2.45;;;19.80;53.20;;;;;;4998066;28;20054;-76
2022/08/31 01:20:56;;;;;;;4.25;2.60;;;19.80;53.10;;;;;;4986702;28;20049;-76
2022/08/31 01:23:26;;;;;;;4.63;2.65;;;19.80;53.20;;;;;;4996638;28;20293;-76
2022/08/31 01:25:53;;;;;;;8.90;3.23;;;19.80;53.20;;;;;;4981971;28;20034;-77
2022/08/31 01:28:18;;;;;;;3.53;2.78;;;19.80;53.30;;;;;;4964223;28;20038;-76
2022/08/31 01:31:16;;;;;;;3.55;2.58;;;19.70;53.40;;;;;;5000713;28;20044;-75
2022/08/31 01:33:41;;;;;;;3.20;2.35;;;19.70;53.60;;;;;;4973887;28;20050;-76
2022/08/31 01:36:07;;;;;;;3.78;2.60;;;19.70;53.40;;;;;;4983462;28;20530;-75
2022/08/31 01:38:33;;;;;;;5.53;2.70;;;19.80;53.50;;;;;;4965131;28;20042;-75
2022/08/31 01:41:00;;;;;;;4.60;2.70;;;19.70;53.40;;;;;;4978059;28;20122;-75
2022/08/31 01:43:26;;;;;;;4.43;2.22;;;19.70;53.60;;;;;;4982075;28;20038;-76
2022/08/31 01:45:52;;;;;;;3.08;2.40;;;19.70;53.70;;;;;;4947731;28;20402;-76
2022/08/31 01:48:18;;;;;;;3.50;2.60;;;19.70;54.00;;;;;;4972889;28;20026;-76
2022/08/31 01:50:43;;;;;;;3.80;2.50;;;19.70;54.00;;;;;;4996809;28;20146;-76
2022/08/31 01:53:09;;;;;;;6.43;2.70;;;19.60;54.00;;;;;;4961326;28;20147;-76
2022/08/31 01:55:37;;;;;;;4.43;2.53;;;19.60;54.00;;;;;;4978224;28;20046;-76
2022/08/31 01:58:03;;;;;;;7.15;2.80;;;19.60;54.20;;;;;;4965796;28;20026;-75
2022/08/31 02:00:29;;;;;;;3.25;2.95;;;19.60;54.20;;;;;;4980213;28;20054;-76
2022/08/31 02:02:56;;;;;;;4.05;2.50;;;19.60;54.20;;;;;;4984114;28;20042;-77
2022/08/31 02:05:21;;;;;;;10.00;2.78;;;19.60;54.40;;;;;;4961095;28;20042;-75
2022/08/31 02:07:47;;;;;;;4.32;2.78;;;19.60;54.50;;;;;;4963153;28;20030;-76
2022/08/31 02:10:13;;;;;;;5.72;3.28;;;19.60;54.60;;;;;;4978637;28;20090;-76
2022/08/31 02:12:38;;;;;;;5.55;2.90;;;19.50;54.60;;;;;;4995191;28;20522;-76
2022/08/31 02:15:04;;;;;;;7.50;4.43;;;19.50;54.80;;;;;;4978244;28;20033;-76
2022/08/31 02:17:30;;;;;;;5.53;2.70;;;19.50;55.00;;;;;;4979944;28;20496;-76
2022/08/31 02:19:55;;;;;;;2.70;2.47;;;19.50;55.10;;;;;;4962757;28;20023;-75
2022/08/31 02:22:21;;;;;;;6.80;3.15;;;19.40;55.00;;;;;;4991717;28;20042;-76
2022/08/31 02:24:48;;;;;;;3.15;2.85;;;19.40;55.10;;;;;;4993953;28;20038;-76
2022/08/31 02:27:14;;;;;;;3.20;2.90;;;19.40;55.20;;;;;;4962213;28;20026;-76
2022/08/31 02:29:39;;;;;;;8.38;2.78;;;19.40;55.20;;;;;;4985284;28;20036;-76
2022/08/31 02:32:05;;;;;;;3.88;2.55;;;19.40;55.40;;;;;;4977701;28;20113;-76
2022/08/31 02:34:31;;;;;;;4.53;2.70;;;19.40;55.50;;;;;;4961456;28;20031;-75
2022/08/31 02:36:57;;;;;;;4.43;2.85;;;19.40;55.50;;;;;;4978341;28;20082;-77
2022/08/31 02:39:22;;;;;;;3.47;2.90;;;19.40;55.60;;;;;;4977523;28;20102;-76
2022/08/31 02:41:48;;;;;;;4.85;2.95;;;19.40;55.60;;;;;;4979106;28;20561;-76
2022/08/31 02:44:14;;;;;;;4.15;2.90;;;19.40;55.70;;;;;;4974802;28;20117;-76
2022/08/31 02:46:39;;;;;;;4.28;2.80;;;19.40;56.00;;;;;;4995101;28;20046;-76
2022/08/31 02:49:05;;;;;;;4.90;2.58;;;19.40;56.00;;;;;;4988702;28;20033;-76
2022/08/31 02:51:30;;;;;;;3.30;2.83;;;19.40;56.00;;;;;;4977968;28;20042;-77
2022/08/31 02:53:56;;;;;;;5.80;2.92;;;19.40;56.00;;;;;;4994009;28;20042;-76
2022/08/31 02:56:22;;;;;;;4.82;2.50;;;19.30;56.10;;;;;;4959403;28;20046;-76
2022/08/31 02:58:53;;;;;;;3.80;2.80;;;19.40;56.20;;;;;;4964433;28;20038;-76
2022/08/31 03:01:20;;;;;;;2.95;2.55;;;19.30;56.20;;;;;;4995920;28;20049;-76
2022/08/31 03:03:45;;;;;;;6.03;3.10;;;19.30;56.20;;;;;;4993449;28;20100;-77
2022/08/31 03:06:11;;;;;;;5.03;2.85;;;19.30;56.20;;;;;;4960938;28;21032;-76
2022/08/31 03:08:38;;;;;;;4.28;2.70;;;19.30;56.30;;;;;;4976172;28;20089;-76
2022/08/31 03:11:03;;;;;;;4.45;2.60;;;19.30;56.30;;;;;;4961612;28;20119;-76
2022/08/31 03:13:29;;;;;;;6.22;3.40;;;19.30;56.40;;;;;;4976216;28;20080;-76
2022/08/31 03:15:55;;;;;;;5.78;3.00;;;19.30;56.60;;;;;;4979617;28;20030;-77
2022/08/31 03:18:21;;;;;;;5.22;2.60;;;19.30;56.50;;;;;;4979340;28;20054;-76
2022/08/31 03:20:46;;;;;;;3.92;2.47;;;19.30;56.60;;;;;;4998066;28;20030;-76
2022/08/31 03:23:14;;;;;;;5.35;2.80;;;19.20;56.60;;;;;;4980276;28;20033;-77
2022/08/31 03:25:39;;;;;;;3.92;3.00;;;19.20;56.80;;;;;;4979565;28;20066;-76
2022/08/31 03:28:05;;;;;;;4.45;2.65;;;19.20;56.90;;;;;;4970507;28;20086;-76
2022/08/31 03:30:31;;;;;;;4.38;3.00;;;19.20;56.90;;;;;;4993607;28;20251;-76
2022/08/31 03:32:56;;;;;;;4.43;2.80;;;19.20;56.90;;;;;;4994112;28;20042;-76
2022/08/31 03:35:24;;;;;;;4.18;2.60;;;19.20;57.00;;;;;;4993673;28;20038;-76
2022/08/31 03:37:50;;;;;;;5.22;3.28;;;19.20;57.00;;;;;;4995140;28;20081;-76
2022/08/31 03:40:15;;;;;;;3.22;2.92;;;19.20;57.10;;;;;;4958066;28;20034;-76
2022/08/31 03:42:41;;;;;;;4.07;2.53;;;19.20;57.10;;;;;;4946406;28;20034;-76
2022/08/31 03:45:07;;;;;;;4.60;2.83;;;19.20;57.20;;;;;;4964856;28;20026;-76
2022/08/31 03:47:34;;;;;;;4.00;2.80;;;19.20;57.90;;;;;;4981705;28;20046;-76
2022/08/31 03:50:02;;;;;;;3.15;2.85;;;19.20;57.20;;;;;;4979257;28;20049;-76
2022/08/31 03:52:28;;;;;;;4.63;2.55;;;19.10;57.20;;;;;;4997631;28;20053;-76
2022/08/31 03:54:54;;;;;;;2.78;2.58;;;19.20;57.40;;;;;;4980739;28;20042;-76
2022/08/31 03:57:19;;;;;;;4.53;3.00;;;19.10;57.40;;;;;;4981276;28;20716;-76
2022/08/31 03:59:45;;;;;;;4.40;2.92;;;19.20;57.40;;;;;;4983649;28;20031;-76
2022/08/31 04:02:10;;;;;;;2.70;2.50;;;19.10;57.40;;;;;;4980085;28;20057;-76
2022/08/31 04:04:36;;;;;;;2.95;2.67;;;19.10;57.40;;;;;;4996189;28;20037;-76
2022/08/31 04:07:04;;;;;;;5.68;2.83;;;19.20;57.50;;;;;;4964890;28;20051;-76
2022/08/31 04:09:30;;;;;;;2.67;2.45;;;19.10;57.60;;;;;;4982554;28;20039;-77
2022/08/31 04:11:55;;;;;;;3.80;2.95;;;19.10;57.60;;;;;;5000146;28;20027;-77
2022/08/31 04:14:21;;;;;;;2.95;2.65;;;19.10;57.50;;;;;;4983504;28;20049;-76
2022/08/31 04:16:46;;;;;;;3.35;3.03;;;19.10;57.60;;;;;;4993531;28;20030;-76
2022/08/31 04:19:14;;;;;;;4.15;3.13;;;19.10;57.70;;;;;;4985724;28;20104;-76
2022/08/31 04:21:42;;;;;;;2.85;2.60;;;19.10;57.70;;;;;;4954495;28;20030;-77
2022/08/31 04:24:08;;;;;;;9.00;3.13;;;19.10;57.80;;;;;;4982998;28;20756;-75
2022/08/31 04:26:35;;;;;;;3.10;2.80;;;19.10;57.80;;;;;;4996103;28;20558;-76
2022/08/31 04:29:01;;;;;;;7.75;3.15;;;19.10;57.80;;;;;;4971912;28;20045;-76
2022/08/31 04:31:27;;;;;;;3.38;2.67;;;19.10;57.90;;;;;;5004409;28;20034;-76
2022/08/31 04:33:56;;;;;;;5.13;2.80;;;19.10;57.90;;;;;;4999383;28;20047;-75
2022/08/31 04:36:24;;;;;;;4.20;2.72;;;19.10;58.00;;;;;;4982938;28;20053;-76
2022/08/31 04:38:50;;;;;;;3.97;2.58;;;19.10;58.00;;;;;;4967201;28;20065;-77
2022/08/31 04:41:19;;;;;;;3.70;2.83;;;19.10;58.00;;;;;;4963979;28;20080;-76
2022/08/31 04:43:47;;;;;;;7.72;3.10;;;19.10;58.00;;;;;;5009824;28;20043;-76
2022/08/31 04:46:15;;;;;;;4.95;2.80;;;19.10;58.10;;;;;;4993766;28;20062;-76
2022/08/31 04:48:43;;;;;;;3.13;2.50;;;19.10;58.30;;;;;;4965817;28;20065;-76
2022/08/31 04:51:29;;;;;;;3.25;2.92;;;19.10;58.40;;;;;;4996513;28;20098;-76
2022/08/31 04:53:55;;;;;;;4.20;2.40;;;19.00;58.30;;;;;;4956656;28;20031;-75
2022/08/31 04:56:26;;;;;;;3.53;2.72;;;19.10;58.30;;;;;;4996319;28;20043;-76
2022/08/31 04:58:56;;;;;;;4.32;2.67;;;19.00;58.40;;;;;;4982755;28;20038;-76
2022/08/31 05:01:26;;;;;;;4.05;2.50;;;19.00;58.20;;;;;;4967552;28;20053;-75
2022/08/31 05:03:54;;;;;;;3.13;2.53;;;19.00;58.30;;;;;;4984581;28;20038;-76
2022/08/31 05:06:23;;;;;;;5.25;3.10;;;19.00;58.30;;;;;;4968310;28;20050;-76
2022/08/31 05:08:56;;;;;;;3.60;2.25;;;19.00;58.30;;;;;;4961051;28;20062;-76
2022/08/31 05:11:22;;;;;;;4.43;2.70;;;19.00;58.60;;;;;;4956971;28;20035;-76
2022/08/31 05:13:48;;;;;;;2.88;2.50;;;19.00;58.40;;;;;;4997595;28;20033;-76
2022/08/31 05:16:15;;;;;;;3.95;2.70;;;19.00;58.50;;;;;;4965756;28;20145;-76
2022/08/31 05:18:44;;;;;;;3.78;2.30;;;19.10;58.60;;;;;;4971063;28;20556;-76
2022/08/31 05:21:11;;;;;;;3.13;2.65;;;19.00;58.50;;;;;;4962349;28;20035;-76
2022/08/31 05:23:37;;;;;;;4.60;2.45;;;19.00;58.60;;;;;;4947906;28;20031;-76
2022/08/31 05:26:03;;;;;;;5.43;2.60;;;19.00;58.60;;;;;;4948311;29;20150;-76
2022/08/31 05:28:28;;;;;;;3.53;2.95;;;19.10;58.70;;;;;;4959076;28;20041;-76
2022/08/31 05:30:56;;;;;;;6.40;3.50;;;19.00;58.80;;;;;;4945359;28;20031;-76
2022/08/31 05:33:22;;;;;;;3.10;2.80;;;19.00;59.00;;;;;;4958011;28;20039;-76
2022/08/31 05:35:47;;;;;;;3.25;2.70;;;19.10;58.90;;;;;;4962419;28;20035;-76
2022/08/31 05:38:13;;;;;;;4.15;2.78;;;19.00;59.00;;;;;;4964177;28;20031;-76
2022/08/31 05:40:40;;;;;;;5.88;2.63;;;19.10;59.00;;;;;;4963407;28;20039;-76
2022/08/31 05:43:06;;;;;;;2.85;2.40;;;19.10;58.90;;;;;;4951290;28;20035;-76
2022/08/31 05:45:31;;;;;;;8.95;3.03;;;19.10;59.00;;;;;;4965683;28;20035;-75
2022/08/31 05:47:57;;;;;;;4.15;2.47;;;19.10;59.10;;;;;;4948276;29;20054;-76
2022/08/31 05:50:22;;;;;;;4.20;2.92;;;19.10;59.30;;;;;;4958504;28;20090;-76
2022/08/31 05:52:48;;;;;;;8.00;3.75;;;19.10;59.30;;;;;;4962835;28;20035;-77
2022/08/31 05:55:14;;;;;;;4.95;2.80;;;19.20;59.30;;;;;;4963717;28;20157;-76
2022/08/31 05:57:39;;;;;;;4.68;2.72;;;19.20;59.40;;;;;;4963578;28;20039;-76
2022/08/31 06:00:06;;;;;;;5.55;3.47;;;19.20;59.40;;;;;;4955875;28;20019;-76
2022/08/31 06:02:32;;;;;;;3.38;2.90;;;19.20;59.40;;;;;;4962657;28;20039;-76
2022/08/31 06:04:58;;;;;;;5.55;2.88;;;19.30;59.50;;;;;;4969661;28;20549;-76
2022/08/31 06:07:24;;;;;;;8.80;2.75;;;19.30;59.40;;;;;;4965274;28;20091;-75
2022/08/31 06:09:49;;;;;;;4.47;2.83;;;19.30;59.50;;;;;;4949134;28;20051;-76
2022/08/31 06:12:16;;;;;;;5.43;2.55;;;19.30;59.50;;;;;;4952092;28;20023;-77
2022/08/31 06:14:42;;;;;;;5.18;3.03;;;19.30;59.40;;;;;;4967173;28;20035;-76
2022/08/31 06:17:07;;;;;;;3.88;2.67;;;19.40;59.40;;;;;;4951527;28;20027;-76
2022/08/31 06:19:33;;;;;;;6.78;2.58;;;19.40;59.40;;;;;;4966717;28;20036;-75
2022/08/31 06:21:58;;;;;;;3.22;2.78;;;19.50;59.40;;;;;;4962109;28;20039;-76
2022/08/31 06:24:24;;;;;;;4.97;2.78;;;19.50;59.40;;;;;;4967293;28;20058;-76
2022/08/31 06:26:54;;;;;;;6.07;2.78;;;19.50;59.30;;;;;;4963887;28;20043;-76
2022/08/31 06:29:19;;;;;;;3.10;2.80;;;19.60;59.40;;;;;;4950129;28;20043;-76
2022/08/31 06:31:46;;;;;;;4.32;2.97;;;19.60;59.30;;;;;;4964384;28;20031;-75
2022/08/31 06:34:13;;;;;;;7.00;3.10;;;19.60;59.30;;;;;;4936122;28;20035;-76
2022/08/31 06:36:38;;;;;;;3.25;2.72;;;19.60;59.20;;;;;;4947613;28;20039;-76
2022/08/31 06:39:04;;;;;;;3.70;3.00;;;19.70;59.20;;;;;;4968330;28;20058;-76
2022/08/31 06:41:34;;;;;;;5.20;2.88;;;19.70;59.20;;;;;;4950616;28;20047;-76
2022/08/31 06:44:03;;;;;;;6.55;2.58;;;19.70;59.20;;;;;;4948889;28;20118;-77
2022/08/31 06:46:30;;;;;;;4.85;2.72;;;19.70;59.00;;;;;;4949306;28;20035;-75
2022/08/31 06:48:55;;;;;;;4.90;2.97;;;19.80;59.00;;;;;;4936812;28;20177;-76
2022/08/31 06:51:21;;;;;;;3.90;2.55;;;19.80;59.00;;;;;;4961821;28;20513;-77
2022/08/31 06:53:47;;;;;;;4.05;2.75;;;19.80;58.90;;;;;;4949120;28;20062;-76
2022/08/31 06:56:20;;;;;;;6.07;2.60;;;19.80;58.80;;;;;;4965771;28;20031;-75
2022/08/31 06:58:46;;;;;;;5.80;2.90;;;19.90;58.80;;;;;;4977568;28;20038;-76
2022/08/31 07:01:16;;;;;;;5.18;2.70;;;19.90;58.80;;;;;;4953592;28;20443;-76
2022/08/31 07:03:42;;;;;;;4.60;2.67;;;20.00;58.70;;;;;;4935038;28;20043;-76
2022/08/31 07:06:13;;;;;;;5.43;2.90;;;20.00;58.70;;;;;;4931371;28;20031;-76
2022/08/31 07:08:39;;;;;;;5.03;3.20;;;20.00;58.60;;;;;;4946195;28;20634;-76
2022/08/31 07:11:13;;;;;;;5.13;2.53;;;20.00;58.50;;;;;;4946892;28;20039;-77
2022/08/31 07:13:39;;;;;;;5.00;2.80;;;20.10;58.50;;;;;;4952091;28;20050;-75
2022/08/31 07:16:06;;;;;;;4.70;2.72;;;20.10;58.40;;;;;;4961263;28;20122;-77
2022/08/31 07:18:32;;;;;;;3.50;2.75;;;20.20;58.30;;;;;;4971419;28;20106;-77
2022/08/31 07:21:11;;;;;;;4.80;2.60;;;20.20;58.30;;;;;;4982290;28;20042;-76
2022/08/31 07:23:38;;;;;;;2.72;2.40;;;20.30;58.40;;;;;;4981076;28;20263;-76
2022/08/31 07:26:11;;;;;;;2.88;2.35;;;20.30;58.10;;;;;;4963397;28;20035;-76
2022/08/31 07:28:37;;;;;;;2.88;2.40;;;20.40;58.10;;;;;;4975126;28;20051;-76
2022/08/31 07:31:04;;;;;;;11.48;3.33;;;20.40;57.90;;;;;;4961004;28;20035;-77
2022/08/31 07:33:36;;;;;;;2.80;2.50;;;20.50;57.80;;;;;;4965807;28;20122;-76
2022/08/31 07:36:04;;;;;;;4.80;2.70;;;20.50;57.70;;;;;;4979824;28;20248;-76
2022/08/31 07:43:58;;;;;;;7.57;2.60;;;20.80;57.40;;;;;;4976177;28;20247;-77
2022/08/31 07:46:28;;;;;;;2.70;2.25;;;20.80;57.20;;;;;;4975213;28;20058;-76
2022/08/31 07:48:55;;;;;;;6.13;2.33;;;20.90;57.20;;;;;;4972490;28;20026;-77
2022/08/31 07:51:22;;;;;;;5.40;2.22;;;21.00;57.10;;;;;;4949690;28;20031;-76
2022/08/31 07:53:48;;;;;;;2.45;2.25;;;21.10;56.90;;;;;;4966076;28;20031;-77
2022/08/31 07:56:16;;;;;;;2.38;2.15;;;21.20;57.40;;;;;;4972639;28;20174;-76
2022/08/31 07:58:41;;;;;;;5.22;2.13;;;21.30;56.60;;;;;;4971444;28;20051;-75
2022/08/31 08:01:07;;;;;;;2.60;2.20;;;21.40;56.40;;;;;;4971908;28;20045;-77
2022/08/31 08:03:33;;;;;;;3.38;2.22;;;21.50;56.20;;;;;;4953678;28;20038;-76
2022/08/31 08:05:58;;;;;;;3.03;2.17;;;21.60;56.00;;;;;;4957703;28;20563;-76
2022/08/31 08:08:24;;;;;;;3.47;2.28;;;21.70;55.80;;;;;;4971627;28;20030;-76
2022/08/31 08:10:49;;;;;;;2.65;2.10;;;21.90;55.70;;;;;;4971947;28;20114;-76
2022/08/31 08:13:15;;;;;;;2.60;2.20;;;22.00;55.40;;;;;;4966860;28;20125;-76
2022/08/31 08:15:41;;;;;;;2.65;2.30;;;22.10;55.10;;;;;;4974815;28;20125;-76
2022/08/31 08:18:09;;;;;;;3.22;2.17;;;22.20;54.90;;;;;;4971054;28;20065;-76
2022/08/31 08:20:36;;;;;;;2.58;2.13;;;22.30;54.70;;;;;;4956931;28;20035;-76
2022/08/31 08:23:01;;;;;;;3.55;2.13;;;22.50;54.50;;;;;;4958532;28;21138;-76
2022/08/31 08:25:27;;;;;;;2.63;2.33;;;22.60;54.20;;;;;;4970392;28;20949;-77
2022/08/31 08:27:53;;;;;;;2.50;2.00;;;22.70;53.90;;;;;;4970193;28;20046;-76
2022/08/31 08:30:18;;;;;;;2.28;2.05;;;22.90;53.70;;;;;;4973000;28;20032;-77
2022/08/31 08:32:46;;;;;;;4.03;2.10;;;22.90;53.40;;;;;;4973502;28;20038;-77
2022/08/31 08:35:12;;;;;;;2.88;1.98;;;23.10;53.20;;;;;;4965792;28;20031;-76
2022/08/31 08:37:41;;;;;;;3.00;2.05;;;23.20;52.90;;;;;;4979550;28;20034;-77
2022/08/31 08:40:10;;;;;;;3.45;2.00;;;23.30;52.70;;;;;;4980822;28;20035;-76
2022/08/31 08:42:36;;;;;;;1.98;1.88;;;23.40;52.40;;;;;;4980482;28;20057;-77
2022/08/31 08:45:03;;;;;;;3.10;1.90;;;23.50;52.20;;;;;;4965373;28;20030;-76
2022/08/31 08:47:31;;;;;;;2.78;1.98;;;23.60;51.90;;;;;;4982516;28;20039;-77
2022/08/31 08:49:57;;;;;;;3.70;1.98;;;23.70;51.70;;;;;;4967190;28;20038;-76
2022/08/31 08:52:49;;;;;;;3.50;2.22;;;23.90;51.50;;;;;;4947957;28;20045;-77
2022/08/31 08:55:23;;;;;;;3.88;2.10;;;24.00;51.00;;;;;;4993278;28;20054;-77
2022/08/31 08:57:49;;;;;;;2.03;1.83;;;24.10;50.90;;;;;;4977001;28;20045;-77
2022/08/31 09:00:15;;;;;;;4.25;2.65;;;24.20;50.70;;;;;;4981256;28;20582;-77
2022/08/31 09:02:57;;;;;;;2.33;2.10;;;24.20;50.40;;;;;;4978730;28;20309;-77
2022/08/31 09:05:40;;;;;;;;;;;24.30;50.20;;;;;;4970744;28;20659;-77
2022/08/31 09:08:10;;;;;;;2.95;1.90;;;24.40;50.20;;;;;;4978322;28;19915;-77
2022/08/31 09:10:42;;;;;;;2.42;1.83;;;24.50;50.10;;;;;;4980125;28;20046;-77
2022/08/31 09:13:42;;;;;;;3.88;1.80;;;24.60;49.90;;;;;;4979986;28;20070;-77
2022/08/31 09:16:10;;;;;;;2.30;2.10;;;24.70;49.40;;;;;;5000402;28;20037;-77
2022/08/31 09:18:51;;;;;;;3.17;2.00;;;24.80;49.50;;;;;;4999392;28;20077;-77
2022/08/31 09:21:33;;;;;;;3.70;1.92;;;24.80;48.90;;;;;;4965142;28;20193;-77
2022/08/31 09:24:02;;;;;;;1.92;1.77;;;24.90;48.70;;;;;;4981233;28;20038;-77
2022/08/31 09:26:44;;;;;;;3.40;2.22;;;25.00;48.70;;;;;;4986379;28;20069;-77
2022/08/31 09:29:19;;;;;;;3.97;2.13;;;25.20;48.50;;;;;;4955574;28;20094;-77
2022/08/31 09:31:45;;;;;;;7.90;2.50;;;25.30;48.20;;;;;;5000548;28;20041;-77
2022/08/31 09:34:35;;;;;;;2.55;1.90;;;25.40;48.10;;;;;;5002047;28;20054;-77
2022/08/31 09:37:14;;;;;;;5.88;2.10;;;25.40;47.60;;;;;;4962598;28;20049;-77
2022/08/31 09:39:41;;;;;;;4.35;2.05;;;25.50;47.50;;;;;;5000793;28;20046;-77
2022/08/31 09:42:29;;;;;;;5.93;2.20;;;25.60;47.60;;;;;;4982293;28;20045;-78
2022/08/31 09:44:58;;;;;;;7.15;2.17;;;25.70;47.10;;;;;;5000898;28;20090;-78
2022/08/31 09:47:50;;;;;;;3.20;2.20;;;25.80;47.40;;;;;;4968950;28;20106;-76
2022/08/31 09:50:40;;;;;;;7.80;2.25;;;25.80;46.70;;;;;;5002006;28;20048;-77
2022/08/31 09:56:20;;;;;;;5.22;2.03;;;26.10;46.70;;;;;;5001965;28;20721;-77
2022/08/31 09:59:01;;;;;;;8.50;2.10;;;26.20;46.00;;;;;;4987549;28;20022;-77
2022/08/31 10:01:34;;;;;;;3.88;2.00;;;26.30;46.00;;;;;;4971378;28;20034;-77
2022/08/31 10:04:19;;;;;;;4.50;2.08;;;26.40;45.90;;;;;;4981094;28;20057;-78
2022/08/31 10:06:58;;;;;;;5.35;2.17;;;26.50;45.30;;;;;;4984842;28;20083;-78
2022/08/31 10:09:27;;;;;;;3.90;1.92;;;26.60;45.50;;;;;;4987321;28;20035;-78
2022/08/31 10:11:53;;;;;;;2.47;1.80;;;26.70;45.30;;;;;;4984449;28;20074;-77
2022/08/31 10:14:49;;;;;;;3.58;2.00;;;26.80;45.10;;;;;;4966645;28;20059;-77
2022/08/31 10:17:28;;;;;;;2.80;2.10;;;26.90;44.40;;;;;;4988004;28;20035;-77
2022/08/31 10:20:20;;;;;;;2.28;1.92;;;27.10;44.20;;;;;;4967058;28;20047;-77
2022/08/31 10:22:51;;;;;;;2.40;2.00;;;27.10;44.20;;;;;;4989831;28;20042;-78
2022/08/31 10:25:35;;;;;;;2.20;2.00;;;27.20;44.00;;;;;;4969679;28;20045;-77
2022/08/31 10:28:11;;;;;;;3.50;2.00;;;27.30;44.00;;;;;;5000998;28;20043;-77
2022/08/31 10:30:36;;;;;;;2.47;2.10;;;27.40;43.90;;;;;;4983364;28;20054;-77
2022/08/31 10:33:04;;;;;;;2.97;2.00;;;27.40;43.60;;;;;;5003524;28;20047;-77
2022/08/31 10:35:43;;;;;;;1.90;1.80;;;27.50;43.50;;;;;;5006808;28;20022;-78
2022/08/31 10:38:26;;;;;;;3.10;1.95;;;27.50;43.20;;;;;;5006761;28;20042;-77
2022/08/31 10:41:11;;;;;;;3.83;2.33;;;27.60;42.50;;;;;;5003218;28;20098;-77
2022/08/31 10:44:17;;;;;;;4.03;2.00;;;27.60;42.70;;;;;;4959980;28;20027;-78
2022/08/31 10:46:43;;;;;;;2.28;2.00;;;27.60;42.20;;;;;;4985995;28;20061;-77
2022/08/31 10:49:10;;;;;;;2.80;2.10;;;27.60;42.70;;;;;;4980912;28;20035;-78
2022/08/31 10:51:40;;;;;;;2.20;2.03;;;27.60;42.40;;;;;;4996059;28;20469;-77
2022/08/31 10:54:20;;;;;;;4.28;2.20;;;27.70;42.20;;;;;;5012301;28;20034;-78
2022/08/31 10:56:58;;;;;;;4.50;2.00;;;27.70;42.00;;;;;;4998502;28;20108;-77
2022/08/31 10:59:48;;;;;;;3.35;2.10;;;27.70;41.90;;;;;;4980036;28;20038;-75
2022/08/31 11:02:55;;;;;;;5.20;1.90;;;27.70;41.50;;;;;;4976797;28;20035;-75
2022/08/31 11:05:29;;;;;;;1.67;1.58;;;27.70;41.50;;;;;;4936710;28;20050;-76
2022/08/31 11:08:11;;;;;;;2.10;1.90;;;27.70;41.60;;;;;;4979373;28;20057;-76
2022/08/31 11:10:55;;;;;;;1.90;1.80;;;27.60;41.30;;;;;;4980344;28;20081;-76
2022/08/31 11:13:37;;;;;;;3.03;2.40;;;27.60;41.20;;;;;;4982900;28;20035;-76
2022/08/31 11:16:27;;;;;;;2.33;1.80;;;27.60;41.30;;;;;;4995705;28;20038;-76
2022/08/31 11:19:06;;;;;;;2.45;2.20;;;27.60;41.20;;;;;;4968240;28;20054;-77
2022/08/31 11:22:06;;;;;;;2.47;2.00;;;27.60;41.00;;;;;;4941858;29;20099;-76
2022/08/31 11:24:54;;;;;;;2.28;1.90;;;27.50;40.90;;;;;;4957022;28;20089;-76
2022/08/31 11:27:35;;;;;;;2.17;1.77;;;27.60;41.10;;;;;;4948298;28;20393;-76
2022/08/31 11:30:23;;;;;;;4.88;1.80;;;27.60;40.80;;;;;;4936592;28;20798;-76
2022/08/31 11:32:55;;;;;;;2.05;1.77;;;27.60;40.40;;;;;;4961280;28;20098;-76
2022/08/31 11:35:46;;;;;;;3.17;1.75;;;27.70;40.80;;;;;;4939203;28;21618;-76
2022/08/31 11:38:40;;;;;;;4.13;1.90;;;27.70;40.40;;;;;;4963850;28;20069;-76
2022/08/31 11:41:09;;;;;;;7.63;2.28;;;27.70;40.30;;;;;;4960490;28;20046;-77
2022/08/31 11:43:35;;;;;;;2.17;1.98;;;27.70;40.50;;;;;;4961493;28;20919;-76
2022/08/31 11:46:24;;;;;;;2.00;1.88;;;27.60;40.40;;;;;;4956628;28;20063;-76
2022/08/31 11:48:52;;;;;;;2.47;2.00;;;27.60;40.10;;;;;;4962047;28;20034;-76
2022/08/31 11:51:39;;;;;;;3.15;2.03;;;27.60;40.40;;;;;;4957258;28;20028;-76
2022/08/31 11:54:25;;;;;;;3.65;2.55;;;27.60;40.00;;;;;;4956174;28;20051;-77
2022/08/31 11:56:55;;;;;;;3.42;2.05;;;27.60;40.00;;;;;;4977268;28;20039;-76
2022/08/31 11:59:35;;;;;;;4.63;2.30;;;27.60;40.40;;;;;;4946977;28;20039;-76
2022/08/31 12:02:19;;;;;;;3.47;2.20;;;27.60;39.90;;;;;;4959010;28;20031;-76
2022/08/31 12:04:48;;;;;;;2.10;1.98;;;27.60;39.90;;;;;;4947759;28;20063;-74
2022/08/31 12:07:21;;;;;;;5.07;2.00;;;27.60;40.20;;;;;;4940091;28;20509;-74
2022/08/31 12:10:05;;;;;;;2.75;2.05;;;27.60;40.10;;;;;;4956609;28;20035;-76
2022/08/31 12:12:41;;;;;;;2.58;2.33;;;27.60;39.80;;;;;;4960202;28;20079;-76
2022/08/31 12:15:14;;;;;;;2.53;2.28;;;27.50;40.00;;;;;;4957091;28;20043;-76
2022/08/31 12:17:43;;;;;;;2.38;1.90;;;27.50;39.90;;;;;;4950063;28;20066;-75
2022/08/31 12:24:05;;;;;;;4.30;1.95;;;27.40;39.80;;;;;;4993580;28;20081;-76
2022/08/31 12:26:51;;;;;;;2.40;2.20;;;27.30;39.70;;;;;;4989013;28;20034;-76
2022/08/31 12:29:23;;;;;;;3.42;1.75;;;27.30;39.70;;;;;;4984366;28;20030;-77
2022/08/31 12:32:07;;;;;;;;;;;27.30;39.90;;;;;;4969394;28;20036;-76
2022/08/31 12:34:38;;;;;;;2.58;2.35;;;27.20;40.00;;;;;;4984224;28;19945;-76
2022/08/31 12:37:29;;;;;;;2.10;1.92;;;27.20;40.20;;;;;;4957129;28;20109;-77
2022/08/31 12:40:12;;;;;;;2.50;2.30;;;27.10;39.80;;;;;;4955250;28;20047;-76
2022/08/31 12:42:42;;;;;;;2.08;1.88;;;27.00;39.80;;;;;;4986862;28;20030;-77
2022/08/31 12:45:09;;;;;;;2.08;1.90;;;27.00;40.10;;;;;;4985042;28;20043;-77
2022/08/31 12:47:41;;;;;;;2.10;1.90;;;27.00;40.10;;;;;;5002332;28;20062;-78
2022/08/31 12:50:15;;;;;;;2.15;1.95;;;27.00;40.10;;;;;;4988502;28;20193;-76
2022/08/31 12:52:44;;;;;;;2.10;1.90;;;27.00;40.10;;;;;;4957822;28;20045;-75
2022/08/31 12:55:22;;;;;;;2.40;2.20;;;27.00;40.00;;;;;;4981014;28;20510;-76
2022/08/31 12:58:40;;;;;;;5.93;2.22;;;27.00;39.90;;;;;;4964915;28;20045;-76
2022/08/31 13:01:07;;;;;;;2.25;2.10;;;27.00;39.70;;;;;;4910344;29;20359;-76
2022/08/31 13:03:32;;;;;;;2.22;2.00;;;27.00;40.00;;;;;;4872663;29;20214;-77
2022/08/31 13:06:08;;;;;;;3.60;2.30;;;27.00;40.00;;;;;;4911357;29;20036;-76
2022/08/31 13:08:41;;;;;;;3.33;2.30;;;27.00;39.90;;;;;;4928423;29;20456;-76
2022/08/31 13:11:28;;;;;;;2.30;2.10;;;27.10;39.90;;;;;;4909462;29;20040;-76
2022/08/31 13:14:07;;;;;;;5.43;2.10;;;27.10;39.60;;;;;;4922229;29;20069;-76
2022/08/31 13:16:32;;;;;;;2.28;1.92;;;27.10;39.70;;;;;;4890027;29;20048;-77
2022/08/31 13:19:02;;;;;;;3.90;1.88;;;27.20;39.70;;;;;;4897440;29;20080;-76
2022/08/31 13:21:27;;;;;;;5.30;2.15;;;27.20;39.50;;;;;;4921150;29;20044;-76